sensor_id;sensor_type;location;lat;lon;timestamp;P1;durP1;ratioP1;P2;durP2;ratioP2
44816;SDS011;30529;53.570;9.964;2023-07-28T00:00:13;2.60;;;2.13;;
44816;SDS011;30529;53.570;9.964;2023-07-28T00:02:40;2.60;;;2.10;;
44816;SDS011;30529;53.570;9.964;2023-07-28T00:05:06;2.50;;;2.30;;
44816;SDS011;30529;53.570;9.964;2023-07-28T00:07:32;3.00;;;2.03;;
44816;SDS011;30529;53.570;9.964;2023-07-28T00:10:01;2.60;;;2.03;;
44816;SDS011;30529;53.570;9.964;2023-07-28T00:12:27;2.07;;;1.87;;
44816;SDS011;30529;53.570;9.964;2023-07-28T00:14:53;3.30;;;2.00;;
44816;SDS011;30529;53.570;9.964;2023-07-28T00:17:18;2.30;;;2.10;;
44816;SDS011;30529;53.570;9.964;2023-07-28T00:19:44;2.63;;;2.30;;
44816;SDS011;30529;53.570;9.964;2023-07-28T00:22:10;2.90;;;2.30;;
44816;SDS011;30529;53.570;9.964;2023-07-28T00:24:36;2.17;;;1.97;;
44816;SDS011;30529;53.570;9.964;2023-07-28T00:27:02;2.73;;;2.30;;
44816;SDS011;30529;53.570;9.964;2023-07-28T00:29:28;2.40;;;2.20;;
44816;SDS011;30529;53.570;9.964;2023-07-28T00:31:54;2.47;;;1.97;;
44816;SDS011;30529;53.570;9.964;2023-07-28T00:34:20;3.13;;;1.97;;
44816;SDS011;30529;53.570;9.964;2023-07-28T00:36:46;1.90;;;1.80;;
44816;SDS011;30529;53.570;9.964;2023-07-28T00:39:12;2.20;;;2.00;;
44816;SDS011;30529;53.570;9.964;2023-07-28T00:41:41;3.30;;;1.70;;
44816;SDS011;30529;53.570;9.964;2023-07-28T00:44:07;2.13;;;1.93;;
44816;SDS011;30529;53.570;9.964;2023-07-28T00:46:33;2.33;;;2.13;;
44816;SDS011;30529;53.570;9.964;2023-07-28T00:48:59;2.50;;;1.87;;
44816;SDS011;30529;53.570;9.964;2023-07-28T00:51:26;1.97;;;1.80;;
44816;SDS011;30529;53.570;9.964;2023-07-28T00:53:53;2.57;;;2.37;;
44816;SDS011;30529;53.570;9.964;2023-07-28T00:56:19;2.33;;;2.00;;
44816;SDS011;30529;53.570;9.964;2023-07-28T00:58:46;2.17;;;1.93;;
44816;SDS011;30529;53.570;9.964;2023-07-28T01:01:12;2.40;;;1.97;;
44816;SDS011;30529;53.570;9.964;2023-07-28T01:03:38;2.77;;;2.10;;
44816;SDS011;30529;53.570;9.964;2023-07-28T01:06:09;2.10;;;1.90;;
44816;SDS011;30529;53.570;9.964;2023-07-28T01:11:17;3.43;;;1.83;;
44816;SDS011;30529;53.570;9.964;2023-07-28T01:13:43;2.70;;;1.87;;
44816;SDS011;30529;53.570;9.964;2023-07-28T01:16:09;3.77;;;1.97;;
44816;SDS011;30529;53.570;9.964;2023-07-28T01:18:35;2.20;;;1.70;;
44816;SDS011;30529;53.570;9.964;2023-07-28T01:21:02;2.07;;;1.90;;
44816;SDS011;30529;53.570;9.964;2023-07-28T01:23:48;1.70;;;1.60;;
44816;SDS011;30529;53.570;9.964;2023-07-28T01:26:34;2.40;;;2.20;;
44816;SDS011;30529;53.570;9.964;2023-07-28T01:29:01;2.23;;;1.90;;
44816;SDS011;30529;53.570;9.964;2023-07-28T01:31:29;2.50;;;1.80;;
44816;SDS011;30529;53.570;9.964;2023-07-28T01:33:55;2.23;;;2.03;;
44816;SDS011;30529;53.570;9.964;2023-07-28T01:36:21;1.93;;;1.73;;
44816;SDS011;30529;53.570;9.964;2023-07-28T01:38:47;1.90;;;1.70;;
44816;SDS011;30529;53.570;9.964;2023-07-28T01:41:13;3.23;;;2.10;;
44816;SDS011;30529;53.570;9.964;2023-07-28T01:43:39;1.77;;;1.67;;
44816;SDS011;30529;53.570;9.964;2023-07-28T01:46:05;2.03;;;1.90;;
44816;SDS011;30529;53.570;9.964;2023-07-28T01:48:31;2.40;;;1.83;;
44816;SDS011;30529;53.570;9.964;2023-07-28T01:50:57;2.10;;;1.87;;
44816;SDS011;30529;53.570;9.964;2023-07-28T01:53:23;2.33;;;2.07;;
44816;SDS011;30529;53.570;9.964;2023-07-28T01:55:49;2.30;;;2.10;;
44816;SDS011;30529;53.570;9.964;2023-07-28T01:58:15;2.27;;;2.07;;
44816;SDS011;30529;53.570;9.964;2023-07-28T02:00:40;2.20;;;1.90;;
44816;SDS011;30529;53.570;9.964;2023-07-28T02:03:06;2.23;;;2.03;;
44816;SDS011;30529;53.570;9.964;2023-07-28T02:05:32;2.00;;;1.83;;
44816;SDS011;30529;53.570;9.964;2023-07-28T02:07:59;2.77;;;2.53;;
44816;SDS011;30529;53.570;9.964;2023-07-28T02:10:28;2.83;;;2.10;;
44816;SDS011;30529;53.570;9.964;2023-07-28T02:12:54;2.47;;;1.67;;
44816;SDS011;30529;53.570;9.964;2023-07-28T02:15:20;2.10;;;1.90;;
44816;SDS011;30529;53.570;9.964;2023-07-28T02:17:46;2.80;;;2.60;;
44816;SDS011;30529;53.570;9.964;2023-07-28T02:20:12;2.57;;;2.37;;
44816;SDS011;30529;53.570;9.964;2023-07-28T02:22:41;2.33;;;2.00;;
44816;SDS011;30529;53.570;9.964;2023-07-28T02:25:08;3.10;;;2.60;;
44816;SDS011;30529;53.570;9.964;2023-07-28T02:27:35;2.40;;;2.20;;
44816;SDS011;30529;53.570;9.964;2023-07-28T02:30:02;2.50;;;2.30;;
44816;SDS011;30529;53.570;9.964;2023-07-28T02:32:29;3.37;;;2.60;;
44816;SDS011;30529;53.570;9.964;2023-07-28T02:34:55;3.33;;;2.83;;
44816;SDS011;30529;53.570;9.964;2023-07-28T02:37:21;3.10;;;2.77;;
44816;SDS011;30529;53.570;9.964;2023-07-28T02:39:47;3.17;;;2.50;;
44816;SDS011;30529;53.570;9.964;2023-07-28T02:42:13;3.00;;;2.70;;
44816;SDS011;30529;53.570;9.964;2023-07-28T02:44:39;3.40;;;2.90;;
44816;SDS011;30529;53.570;9.964;2023-07-28T02:47:05;3.10;;;2.77;;
44816;SDS011;30529;53.570;9.964;2023-07-28T02:49:31;3.10;;;2.50;;
44816;SDS011;30529;53.570;9.964;2023-07-28T02:51:57;3.10;;;2.80;;
44816;SDS011;30529;53.570;9.964;2023-07-28T02:54:24;3.20;;;2.90;;
44816;SDS011;30529;53.570;9.964;2023-07-28T02:56:50;2.57;;;2.30;;
44816;SDS011;30529;53.570;9.964;2023-07-28T02:59:17;3.93;;;2.93;;
44816;SDS011;30529;53.570;9.964;2023-07-28T03:01:43;3.10;;;2.67;;
44816;SDS011;30529;53.570;9.964;2023-07-28T03:04:09;2.93;;;2.70;;
44816;SDS011;30529;53.570;9.964;2023-07-28T03:06:35;2.90;;;2.57;;
44816;SDS011;30529;53.570;9.964;2023-07-28T03:09:05;3.30;;;3.00;;
44816;SDS011;30529;53.570;9.964;2023-07-28T03:11:31;3.23;;;2.93;;
44816;SDS011;30529;53.570;9.964;2023-07-28T03:13:57;3.43;;;3.13;;
44816;SDS011;30529;53.570;9.964;2023-07-28T03:16:23;2.53;;;2.33;;
44816;SDS011;30529;53.570;9.964;2023-07-28T03:18:49;3.00;;;2.70;;
44816;SDS011;30529;53.570;9.964;2023-07-28T03:21:15;2.40;;;2.20;;
44816;SDS011;30529;53.570;9.964;2023-07-28T03:23:41;3.23;;;2.40;;
44816;SDS011;30529;53.570;9.964;2023-07-28T03:26:07;2.30;;;2.10;;
44816;SDS011;30529;53.570;9.964;2023-07-28T03:28:33;3.00;;;2.20;;
44816;SDS011;30529;53.570;9.964;2023-07-28T03:30:59;4.33;;;2.50;;
44816;SDS011;30529;53.570;9.964;2023-07-28T03:33:25;3.10;;;2.20;;
44816;SDS011;30529;53.570;9.964;2023-07-28T03:35:51;3.70;;;2.80;;
44816;SDS011;30529;53.570;9.964;2023-07-28T03:38:17;2.17;;;1.97;;
44816;SDS011;30529;53.570;9.964;2023-07-28T03:40:44;2.37;;;2.03;;
44816;SDS011;30529;53.570;9.964;2023-07-28T03:43:10;2.00;;;1.83;;
44816;SDS011;30529;53.570;9.964;2023-07-28T03:45:36;2.37;;;2.17;;
44816;SDS011;30529;53.570;9.964;2023-07-28T03:48:02;1.60;;;1.50;;
44816;SDS011;30529;53.570;9.964;2023-07-28T03:50:29;1.83;;;1.73;;
44816;SDS011;30529;53.570;9.964;2023-07-28T03:52:54;2.43;;;1.90;;
44816;SDS011;30529;53.570;9.964;2023-07-28T03:55:20;2.10;;;1.90;;
44816;SDS011;30529;53.570;9.964;2023-07-28T03:57:46;2.30;;;2.00;;
44816;SDS011;30529;53.570;9.964;2023-07-28T04:00:12;2.00;;;1.80;;
44816;SDS011;30529;53.570;9.964;2023-07-28T04:02:39;1.70;;;1.60;;
44816;SDS011;30529;53.570;9.964;2023-07-28T04:05:05;2.13;;;1.93;;
44816;SDS011;30529;53.570;9.964;2023-07-28T04:07:31;2.50;;;2.30;;
44816;SDS011;30529;53.570;9.964;2023-07-28T04:09:57;2.13;;;1.93;;
44816;SDS011;30529;53.570;9.964;2023-07-28T04:12:23;1.97;;;1.80;;
44816;SDS011;30529;53.570;9.964;2023-07-28T04:14:49;2.43;;;2.20;;
44816;SDS011;30529;53.570;9.964;2023-07-28T04:17:15;1.87;;;1.77;;
44816;SDS011;30529;53.570;9.964;2023-07-28T04:19:41;1.70;;;1.60;;
44816;SDS011;30529;53.570;9.964;2023-07-28T04:22:07;1.77;;;1.67;;
44816;SDS011;30529;53.570;9.964;2023-07-28T04:24:33;3.23;;;2.20;;
44816;SDS011;30529;53.570;9.964;2023-07-28T04:26:59;2.33;;;2.13;;
44816;SDS011;30529;53.570;9.964;2023-07-28T04:29:25;2.10;;;1.90;;
44816;SDS011;30529;53.570;9.964;2023-07-28T04:31:52;2.30;;;2.10;;
44816;SDS011;30529;53.570;9.964;2023-07-28T04:34:18;3.73;;;2.10;;
44816;SDS011;30529;53.570;9.964;2023-07-28T04:36:44;2.03;;;1.83;;
44816;SDS011;30529;53.570;9.964;2023-07-28T04:39:10;2.20;;;2.00;;
44816;SDS011;30529;53.570;9.964;2023-07-28T04:41:36;3.03;;;2.27;;
44816;SDS011;30529;53.570;9.964;2023-07-28T04:44:02;2.33;;;2.13;;
44816;SDS011;30529;53.570;9.964;2023-07-28T04:46:28;2.70;;;2.50;;
44816;SDS011;30529;53.570;9.964;2023-07-28T04:48:54;2.53;;;2.33;;
44816;SDS011;30529;53.570;9.964;2023-07-28T04:51:21;2.60;;;2.40;;
44816;SDS011;30529;53.570;9.964;2023-07-28T04:53:46;4.27;;;3.03;;
44816;SDS011;30529;53.570;9.964;2023-07-28T04:56:12;3.20;;;2.90;;
44816;SDS011;30529;53.570;9.964;2023-07-28T04:58:41;2.90;;;2.50;;
44816;SDS011;30529;53.570;9.964;2023-07-28T05:01:07;2.87;;;2.67;;
44816;SDS011;30529;53.570;9.964;2023-07-28T05:03:34;2.93;;;2.67;;
44816;SDS011;30529;53.570;9.964;2023-07-28T05:06:02;3.00;;;2.70;;
44816;SDS011;30529;53.570;9.964;2023-07-28T05:08:29;3.23;;;2.93;;
44816;SDS011;30529;53.570;9.964;2023-07-28T05:10:55;2.80;;;2.60;;
44816;SDS011;30529;53.570;9.964;2023-07-28T05:13:22;3.97;;;3.00;;
44816;SDS011;30529;53.570;9.964;2023-07-28T05:15:48;2.77;;;2.50;;
44816;SDS011;30529;53.570;9.964;2023-07-28T05:18:14;2.43;;;2.23;;
44816;SDS011;30529;53.570;9.964;2023-07-28T05:20:40;2.90;;;2.70;;
44816;SDS011;30529;53.570;9.964;2023-07-28T05:23:05;2.73;;;2.47;;
44816;SDS011;30529;53.570;9.964;2023-07-28T05:25:31;2.40;;;2.20;;
44816;SDS011;30529;53.570;9.964;2023-07-28T05:27:58;3.20;;;2.90;;
44816;SDS011;30529;53.570;9.964;2023-07-28T05:30:23;2.90;;;2.70;;
44816;SDS011;30529;53.570;9.964;2023-07-28T05:32:49;3.00;;;2.20;;
44816;SDS011;30529;53.570;9.964;2023-07-28T05:35:15;2.80;;;2.20;;
44816;SDS011;30529;53.570;9.964;2023-07-28T05:37:42;2.20;;;1.67;;
44816;SDS011;30529;53.570;9.964;2023-07-28T05:40:08;2.20;;;2.00;;
44816;SDS011;30529;53.570;9.964;2023-07-28T05:42:34;2.10;;;1.90;;
44816;SDS011;30529;53.570;9.964;2023-07-28T05:45:00;2.00;;;1.80;;
44816;SDS011;30529;53.570;9.964;2023-07-28T05:47:26;2.30;;;2.10;;
44816;SDS011;30529;53.570;9.964;2023-07-28T05:49:52;2.47;;;2.10;;
44816;SDS011;30529;53.570;9.964;2023-07-28T05:52:21;2.40;;;2.20;;
44816;SDS011;30529;53.570;9.964;2023-07-28T05:54:48;2.10;;;1.90;;
44816;SDS011;30529;53.570;9.964;2023-07-28T05:57:14;2.33;;;2.13;;
44816;SDS011;30529;53.570;9.964;2023-07-28T05:59:40;2.00;;;1.80;;
44816;SDS011;30529;53.570;9.964;2023-07-28T06:02:06;2.13;;;1.40;;
44816;SDS011;30529;53.570;9.964;2023-07-28T06:04:31;2.23;;;1.50;;
44816;SDS011;30529;53.570;9.964;2023-07-28T06:06:58;2.33;;;1.60;;
44816;SDS011;30529;53.570;9.964;2023-07-28T06:09:24;1.70;;;1.43;;
44816;SDS011;30529;53.570;9.964;2023-07-28T06:11:50;1.47;;;1.33;;
44816;SDS011;30529;53.570;9.964;2023-07-28T06:14:16;1.80;;;1.47;;
44816;SDS011;30529;53.570;9.964;2023-07-28T06:16:42;1.47;;;1.23;;
44816;SDS011;30529;53.570;9.964;2023-07-28T06:19:08;2.20;;;1.50;;
44816;SDS011;30529;53.570;9.964;2023-07-28T06:21:34;3.03;;;2.20;;
44816;SDS011;30529;53.570;9.964;2023-07-28T06:24:00;2.50;;;1.40;;
44816;SDS011;30529;53.570;9.964;2023-07-28T06:26:26;1.63;;;1.53;;
44816;SDS011;30529;53.570;9.964;2023-07-28T06:28:52;1.53;;;1.40;;
44816;SDS011;30529;53.570;9.964;2023-07-28T06:31:18;2.10;;;1.70;;
44816;SDS011;30529;53.570;9.964;2023-07-28T06:33:44;1.43;;;1.33;;
44816;SDS011;30529;53.570;9.964;2023-07-28T06:36:10;1.30;;;1.20;;
44816;SDS011;30529;53.570;9.964;2023-07-28T06:38:36;1.20;;;1.10;;
44816;SDS011;30529;53.570;9.964;2023-07-28T06:41:02;1.53;;;1.20;;
44816;SDS011;30529;53.570;9.964;2023-07-28T06:43:28;2.17;;;1.20;;
44816;SDS011;30529;53.570;9.964;2023-07-28T06:45:54;2.13;;;1.70;;
44816;SDS011;30529;53.570;9.964;2023-07-28T06:48:20;1.50;;;1.23;;
44816;SDS011;30529;53.570;9.964;2023-07-28T06:50:46;1.70;;;1.50;;
44816;SDS011;30529;53.570;9.964;2023-07-28T06:53:12;2.17;;;1.90;;
44816;SDS011;30529;53.570;9.964;2023-07-28T06:55:38;2.40;;;1.50;;
44816;SDS011;30529;53.570;9.964;2023-07-28T06:58:05;1.80;;;1.53;;
44816;SDS011;30529;53.570;9.964;2023-07-28T07:00:32;2.03;;;1.50;;
44816;SDS011;30529;53.570;9.964;2023-07-28T07:02:59;2.50;;;1.40;;
44816;SDS011;30529;53.570;9.964;2023-07-28T07:05:25;1.43;;;1.30;;
44816;SDS011;30529;53.570;9.964;2023-07-28T07:07:51;1.70;;;1.60;;
44816;SDS011;30529;53.570;9.964;2023-07-28T07:10:18;1.63;;;1.53;;
44816;SDS011;30529;53.570;9.964;2023-07-28T07:12:44;1.47;;;1.37;;
44816;SDS011;30529;53.570;9.964;2023-07-28T07:15:10;2.87;;;1.40;;
44816;SDS011;30529;53.570;9.964;2023-07-28T07:17:37;1.40;;;1.30;;
44816;SDS011;30529;53.570;9.964;2023-07-28T07:20:03;1.53;;;1.40;;
44816;SDS011;30529;53.570;9.964;2023-07-28T07:22:31;2.00;;;1.57;;
44816;SDS011;30529;53.570;9.964;2023-07-28T07:24:57;2.73;;;1.83;;
44816;SDS011;30529;53.570;9.964;2023-07-28T07:27:24;2.03;;;1.80;;
44816;SDS011;30529;53.570;9.964;2023-07-28T07:29:50;1.97;;;1.60;;
44816;SDS011;30529;53.570;9.964;2023-07-28T07:32:17;2.57;;;1.90;;
44816;SDS011;30529;53.570;9.964;2023-07-28T07:34:43;1.53;;;1.40;;
44816;SDS011;30529;53.570;9.964;2023-07-28T07:37:09;1.70;;;1.40;;
44816;SDS011;30529;53.570;9.964;2023-07-28T07:39:35;1.63;;;1.50;;
44816;SDS011;30529;53.570;9.964;2023-07-28T07:42:01;1.40;;;1.30;;
44816;SDS011;30529;53.570;9.964;2023-07-28T07:44:27;2.60;;;1.60;;
44816;SDS011;30529;53.570;9.964;2023-07-28T07:46:54;1.50;;;1.30;;
44816;SDS011;30529;53.570;9.964;2023-07-28T07:49:21;1.67;;;1.30;;
44816;SDS011;30529;53.570;9.964;2023-07-28T07:51:48;2.73;;;1.60;;
44816;SDS011;30529;53.570;9.964;2023-07-28T07:54:14;1.40;;;1.30;;
44816;SDS011;30529;53.570;9.964;2023-07-28T07:56:44;2.17;;;1.20;;
44816;SDS011;30529;53.570;9.964;2023-07-28T07:59:12;3.60;;;1.43;;
44816;SDS011;30529;53.570;9.964;2023-07-28T08:01:38;2.23;;;1.70;;
44816;SDS011;30529;53.570;9.964;2023-07-28T08:04:04;1.57;;;1.23;;
44816;SDS011;30529;53.570;9.964;2023-07-28T08:06:30;1.27;;;1.13;;
44816;SDS011;30529;53.570;9.964;2023-07-28T08:08:56;1.30;;;1.20;;
44816;SDS011;30529;53.570;9.964;2023-07-28T08:11:24;1.07;;;0.97;;
44816;SDS011;30529;53.570;9.964;2023-07-28T08:13:50;1.37;;;1.20;;
44816;SDS011;30529;53.570;9.964;2023-07-28T08:16:16;2.17;;;1.30;;
44816;SDS011;30529;53.570;9.964;2023-07-28T08:18:42;2.60;;;1.10;;
44816;SDS011;30529;53.570;9.964;2023-07-28T08:21:08;2.13;;;1.40;;
44816;SDS011;30529;53.570;9.964;2023-07-28T08:23:35;1.67;;;1.53;;
44816;SDS011;30529;53.570;9.964;2023-07-28T08:26:01;1.80;;;1.37;;
44816;SDS011;30529;53.570;9.964;2023-07-28T08:28:27;1.80;;;1.60;;
44816;SDS011;30529;53.570;9.964;2023-07-28T08:30:54;2.87;;;1.60;;
44816;SDS011;30529;53.570;9.964;2023-07-28T08:36:37;2.63;;;1.50;;
44816;SDS011;30529;53.570;9.964;2023-07-28T08:39:04;1.63;;;1.50;;
44816;SDS011;30529;53.570;9.964;2023-07-28T08:41:30;1.60;;;1.50;;
44816;SDS011;30529;53.570;9.964;2023-07-28T08:43:56;3.90;;;1.67;;
44816;SDS011;30529;53.570;9.964;2023-07-28T08:46:22;1.40;;;1.30;;
44816;SDS011;30529;53.570;9.964;2023-07-28T08:48:49;3.53;;;1.40;;
44816;SDS011;30529;53.570;9.964;2023-07-28T08:51:15;1.93;;;1.20;;
44816;SDS011;30529;53.570;9.964;2023-07-28T08:56:35;1.43;;;1.30;;
44816;SDS011;30529;53.570;9.964;2023-07-28T08:59:03;2.97;;;2.23;;
44816;SDS011;30529;53.570;9.964;2023-07-28T09:01:30;3.13;;;1.63;;
44816;SDS011;30529;53.570;9.964;2023-07-28T09:03:56;2.37;;;2.03;;
44816;SDS011;30529;53.570;9.964;2023-07-28T09:06:28;2.43;;;1.33;;
44816;SDS011;30529;53.570;9.964;2023-07-28T09:08:57;2.43;;;1.60;;
44816;SDS011;30529;53.570;9.964;2023-07-28T09:11:24;1.60;;;1.50;;
44816;SDS011;30529;53.570;9.964;2023-07-28T09:13:53;2.33;;;1.57;;
44816;SDS011;30529;53.570;9.964;2023-07-28T09:16:20;1.60;;;1.50;;
44816;SDS011;30529;53.570;9.964;2023-07-28T09:18:47;1.77;;;1.60;;
44816;SDS011;30529;53.570;9.964;2023-07-28T09:21:20;2.13;;;1.83;;
44816;SDS011;30529;53.570;9.964;2023-07-28T09:23:47;2.53;;;1.73;;
44816;SDS011;30529;53.570;9.964;2023-07-28T09:26:14;1.87;;;1.63;;
44816;SDS011;30529;53.570;9.964;2023-07-28T09:28:41;3.23;;;2.00;;
44816;SDS011;30529;53.570;9.964;2023-07-28T09:31:07;1.70;;;1.60;;
44816;SDS011;30529;53.570;9.964;2023-07-28T09:33:35;2.80;;;1.60;;
44816;SDS011;30529;53.570;9.964;2023-07-28T09:36:12;2.00;;;1.70;;
44816;SDS011;30529;53.570;9.964;2023-07-28T09:38:41;3.03;;;1.90;;
44816;SDS011;30529;53.570;9.964;2023-07-28T09:41:08;3.33;;;1.60;;
44816;SDS011;30529;53.570;9.964;2023-07-28T09:43:37;2.13;;;1.60;;
44816;SDS011;30529;53.570;9.964;2023-07-28T09:46:04;2.37;;;1.70;;
44816;SDS011;30529;53.570;9.964;2023-07-28T09:48:32;2.57;;;2.00;;
44816;SDS011;30529;53.570;9.964;2023-07-28T09:51:04;2.47;;;1.97;;
44816;SDS011;30529;53.570;9.964;2023-07-28T09:53:36;2.67;;;1.60;;
44816;SDS011;30529;53.570;9.964;2023-07-28T09:56:08;2.37;;;1.77;;
44816;SDS011;30529;53.570;9.964;2023-07-28T09:58:37;3.07;;;1.90;;
44816;SDS011;30529;53.570;9.964;2023-07-28T10:01:07;2.57;;;2.00;;
44816;SDS011;30529;53.570;9.964;2023-07-28T10:03:34;2.00;;;1.70;;
44816;SDS011;30529;53.570;9.964;2023-07-28T10:06:00;2.53;;;1.70;;
44816;SDS011;30529;53.570;9.964;2023-07-28T10:08:26;2.67;;;1.80;;
44816;SDS011;30529;53.570;9.964;2023-07-28T10:10:54;2.40;;;1.83;;
44816;SDS011;30529;53.570;9.964;2023-07-28T10:13:21;3.13;;;2.57;;
44816;SDS011;30529;53.570;9.964;2023-07-28T10:15:48;2.00;;;1.80;;
44816;SDS011;30529;53.570;9.964;2023-07-28T10:18:15;3.33;;;1.53;;
44816;SDS011;30529;53.570;9.964;2023-07-28T10:20:44;2.50;;;1.60;;
44816;SDS011;30529;53.570;9.964;2023-07-28T10:23:20;2.93;;;1.57;;
44816;SDS011;30529;53.570;9.964;2023-07-28T10:25:48;3.00;;;2.07;;
44816;SDS011;30529;53.570;9.964;2023-07-28T10:28:30;1.57;;;1.30;;
44816;SDS011;30529;53.570;9.964;2023-07-28T10:31:02;2.43;;;1.63;;
44816;SDS011;30529;53.570;9.964;2023-07-28T10:33:31;2.27;;;2.07;;
44816;SDS011;30529;53.570;9.964;2023-07-28T10:38:41;2.00;;;1.80;;
44816;SDS011;30529;53.570;9.964;2023-07-28T10:43:43;2.10;;;1.70;;
44816;SDS011;30529;53.570;9.964;2023-07-28T10:46:10;2.37;;;1.40;;
44816;SDS011;30529;53.570;9.964;2023-07-28T10:48:43;1.73;;;1.30;;
44816;SDS011;30529;53.570;9.964;2023-07-28T10:51:12;1.90;;;1.63;;
44816;SDS011;30529;53.570;9.964;2023-07-28T10:53:55;3.40;;;1.83;;
44816;SDS011;30529;53.570;9.964;2023-07-28T10:56:21;2.23;;;1.60;;
44816;SDS011;30529;53.570;9.964;2023-07-28T10:58:55;2.23;;;1.97;;
44816;SDS011;30529;53.570;9.964;2023-07-28T11:01:35;2.83;;;1.73;;
44816;SDS011;30529;53.570;9.964;2023-07-28T11:04:15;2.00;;;1.80;;
44816;SDS011;30529;53.570;9.964;2023-07-28T11:06:45;1.80;;;1.60;;
44816;SDS011;30529;53.570;9.964;2023-07-28T11:09:14;2.10;;;1.80;;
44816;SDS011;30529;53.570;9.964;2023-07-28T11:11:43;4.07;;;1.90;;
44816;SDS011;30529;53.570;9.964;2023-07-28T11:14:09;1.40;;;1.23;;
44816;SDS011;30529;53.570;9.964;2023-07-28T11:16:37;1.90;;;1.53;;
44816;SDS011;30529;53.570;9.964;2023-07-28T11:19:08;2.00;;;1.23;;
44816;SDS011;30529;53.570;9.964;2023-07-28T11:21:43;1.73;;;1.43;;
44816;SDS011;30529;53.570;9.964;2023-07-28T11:24:10;2.80;;;1.20;;
44816;SDS011;30529;53.570;9.964;2023-07-28T11:26:37;1.20;;;1.10;;
44816;SDS011;30529;53.570;9.964;2023-07-28T11:29:04;2.00;;;1.80;;
44816;SDS011;30529;53.570;9.964;2023-07-28T11:31:31;1.73;;;1.30;;
44816;SDS011;30529;53.570;9.964;2023-07-28T11:33:58;2.23;;;1.33;;
44816;SDS011;30529;53.570;9.964;2023-07-28T11:36:28;2.13;;;1.30;;
44816;SDS011;30529;53.570;9.964;2023-07-28T11:38:59;2.60;;;1.20;;
44816;SDS011;30529;53.570;9.964;2023-07-28T11:41:26;1.40;;;0.93;;
44816;SDS011;30529;53.570;9.964;2023-07-28T11:43:53;1.30;;;1.20;;
44816;SDS011;30529;53.570;9.964;2023-07-28T11:46:32;1.27;;;1.10;;
44816;SDS011;30529;53.570;9.964;2023-07-28T11:49:11;2.50;;;1.13;;
44816;SDS011;30529;53.570;9.964;2023-07-28T11:51:48;1.57;;;1.27;;
44816;SDS011;30529;53.570;9.964;2023-07-28T11:54:16;2.07;;;1.50;;
44816;SDS011;30529;53.570;9.964;2023-07-28T11:56:48;3.37;;;1.27;;
44816;SDS011;30529;53.570;9.964;2023-07-28T11:59:15;1.23;;;1.10;;
44816;SDS011;30529;53.570;9.964;2023-07-28T12:01:52;1.70;;;1.13;;
44816;SDS011;30529;53.570;9.964;2023-07-28T12:04:21;1.63;;;1.10;;
44816;SDS011;30529;53.570;9.964;2023-07-28T12:07:01;1.20;;;1.10;;
44816;SDS011;30529;53.570;9.964;2023-07-28T12:12:18;1.10;;;1.00;;
44816;SDS011;30529;53.570;9.964;2023-07-28T12:14:46;1.00;;;0.80;;
44816;SDS011;30529;53.570;9.964;2023-07-28T12:17:16;0.90;;;0.90;;
44816;SDS011;30529;53.570;9.964;2023-07-28T12:20:00;1.10;;;1.00;;
44816;SDS011;30529;53.570;9.964;2023-07-28T12:22:31;1.20;;;1.10;;
44816;SDS011;30529;53.570;9.964;2023-07-28T12:24:58;1.17;;;1.00;;
44816;SDS011;30529;53.570;9.964;2023-07-28T12:27:24;1.23;;;0.93;;
44816;SDS011;30529;53.570;9.964;2023-07-28T12:29:52;1.60;;;1.30;;
44816;SDS011;30529;53.570;9.964;2023-07-28T12:32:18;1.47;;;1.10;;
44816;SDS011;30529;53.570;9.964;2023-07-28T12:34:44;1.20;;;1.00;;
44816;SDS011;30529;53.570;9.964;2023-07-28T12:37:10;1.60;;;1.37;;
44816;SDS011;30529;53.570;9.964;2023-07-28T12:39:37;1.67;;;1.33;;
44816;SDS011;30529;53.570;9.964;2023-07-28T12:42:07;1.57;;;1.00;;
44816;SDS011;30529;53.570;9.964;2023-07-28T12:44:34;0.87;;;0.77;;
44816;SDS011;30529;53.570;9.964;2023-07-28T12:47:01;1.10;;;0.90;;
44816;SDS011;30529;53.570;9.964;2023-07-28T12:49:27;1.00;;;0.80;;
44816;SDS011;30529;53.570;9.964;2023-07-28T12:51:55;0.70;;;0.70;;
44816;SDS011;30529;53.570;9.964;2023-07-28T12:54:22;1.50;;;1.17;;
44816;SDS011;30529;53.570;9.964;2023-07-28T12:56:48;5.37;;;3.63;;
44816;SDS011;30529;53.570;9.964;2023-07-28T12:59:14;1.03;;;0.93;;
44816;SDS011;30529;53.570;9.964;2023-07-28T13:01:40;1.13;;;1.03;;
44816;SDS011;30529;53.570;9.964;2023-07-28T13:04:06;1.13;;;1.03;;
44816;SDS011;30529;53.570;9.964;2023-07-28T13:06:33;1.00;;;0.90;;
44816;SDS011;30529;53.570;9.964;2023-07-28T13:08:59;1.27;;;1.00;;
44816;SDS011;30529;53.570;9.964;2023-07-28T13:11:25;1.27;;;1.00;;
44816;SDS011;30529;53.570;9.964;2023-07-28T13:13:51;2.13;;;1.33;;
44816;SDS011;30529;53.570;9.964;2023-07-28T13:16:17;1.93;;;1.40;;
44816;SDS011;30529;53.570;9.964;2023-07-28T13:18:43;1.77;;;1.10;;
44816;SDS011;30529;53.570;9.964;2023-07-28T13:21:11;0.97;;;0.87;;
44816;SDS011;30529;53.570;9.964;2023-07-28T13:23:38;1.23;;;0.90;;
44816;SDS011;30529;53.570;9.964;2023-07-28T13:26:05;1.20;;;1.10;;
44816;SDS011;30529;53.570;9.964;2023-07-28T13:28:32;1.37;;;1.10;;
44816;SDS011;30529;53.570;9.964;2023-07-28T13:30:58;2.80;;;1.00;;
44816;SDS011;30529;53.570;9.964;2023-07-28T13:33:24;0.97;;;0.90;;
44816;SDS011;30529;53.570;9.964;2023-07-28T13:35:50;2.10;;;1.10;;
44816;SDS011;30529;53.570;9.964;2023-07-28T13:38:16;1.60;;;1.13;;
44816;SDS011;30529;53.570;9.964;2023-07-28T13:40:42;1.70;;;1.00;;
44816;SDS011;30529;53.570;9.964;2023-07-28T13:43:08;1.80;;;1.00;;
44816;SDS011;30529;53.570;9.964;2023-07-28T13:45:34;1.40;;;0.80;;
44816;SDS011;30529;53.570;9.964;2023-07-28T13:48:00;1.23;;;0.97;;
44816;SDS011;30529;53.570;9.964;2023-07-28T13:50:26;1.30;;;0.80;;
44816;SDS011;30529;53.570;9.964;2023-07-28T13:52:52;1.50;;;0.90;;
44816;SDS011;30529;53.570;9.964;2023-07-28T13:55:18;1.00;;;0.90;;
44816;SDS011;30529;53.570;9.964;2023-07-28T13:57:44;1.30;;;0.97;;
44816;SDS011;30529;53.570;9.964;2023-07-28T14:00:10;2.03;;;1.10;;
44816;SDS011;30529;53.570;9.964;2023-07-28T14:02:37;1.40;;;1.00;;
44816;SDS011;30529;53.570;9.964;2023-07-28T14:05:04;1.17;;;1.00;;
44816;SDS011;30529;53.570;9.964;2023-07-28T14:07:31;1.40;;;0.97;;
44816;SDS011;30529;53.570;9.964;2023-07-28T14:09:57;1.53;;;0.87;;
44816;SDS011;30529;53.570;9.964;2023-07-28T14:12:23;1.50;;;0.97;;
44816;SDS011;30529;53.570;9.964;2023-07-28T14:14:49;1.63;;;1.10;;
44816;SDS011;30529;53.570;9.964;2023-07-28T14:17:15;1.53;;;0.73;;
44816;SDS011;30529;53.570;9.964;2023-07-28T14:19:41;0.93;;;0.80;;
44816;SDS011;30529;53.570;9.964;2023-07-28T14:22:13;1.07;;;0.80;;
44816;SDS011;30529;53.570;9.964;2023-07-28T14:24:39;1.10;;;0.80;;
44816;SDS011;30529;53.570;9.964;2023-07-28T14:27:05;1.77;;;1.10;;
44816;SDS011;30529;53.570;9.964;2023-07-28T14:29:32;2.77;;;0.90;;
44816;SDS011;30529;53.570;9.964;2023-07-28T14:31:58;2.13;;;1.17;;
44816;SDS011;30529;53.570;9.964;2023-07-28T14:34:24;4.53;;;1.00;;
44816;SDS011;30529;53.570;9.964;2023-07-28T14:36:50;1.43;;;1.07;;
44816;SDS011;30529;53.570;9.964;2023-07-28T14:39:15;2.43;;;1.10;;
44816;SDS011;30529;53.570;9.964;2023-07-28T14:41:43;1.90;;;1.10;;
44816;SDS011;30529;53.570;9.964;2023-07-28T14:44:09;1.17;;;1.07;;
44816;SDS011;30529;53.570;9.964;2023-07-28T14:46:35;1.37;;;1.03;;
44816;SDS011;30529;53.570;9.964;2023-07-28T14:49:01;1.10;;;0.90;;
44816;SDS011;30529;53.570;9.964;2023-07-28T14:51:27;2.93;;;1.00;;
44816;SDS011;30529;53.570;9.964;2023-07-28T14:53:54;1.83;;;1.07;;
44816;SDS011;30529;53.570;9.964;2023-07-28T14:56:20;1.00;;;0.80;;
44816;SDS011;30529;53.570;9.964;2023-07-28T14:58:50;2.70;;;1.20;;
44816;SDS011;30529;53.570;9.964;2023-07-28T15:01:20;1.20;;;1.00;;
44816;SDS011;30529;53.570;9.964;2023-07-28T15:03:46;1.30;;;0.90;;